Time,TemperatureF,DewpointF,PressureIn,WindDirection,WindDirectionDegrees,WindSpeedMPH,WindSpeedGustMPH,Humidity,HourlyPrecipIn,Conditions,Clouds,dailyrainin,SoftwareType,DateUTC
2013-02-09 00:00:00,11.4,-1.2,30.27,NNE,22,0.0,0.0,56,0.00,,SKC,0.00,VWS V14.01,2013-02-09 05:00:00,
2013-02-09 00:15:00,11.1,-1.5,30.28,NNE,22,0.0,0.0,56,0.00,,SKC,0.00,VWS V14.01,2013-02-09 05:15:00,
2013-02-09 00:30:00,10.5,-2.1,30.28,NNE,22,0.0,0.0,56,0.00,,SKC,0.00,VWS V14.01,2013-02-09 05:30:00,
2013-02-09 00:45:00,9.5,-3.4,30.28,NNE,22,0.0,0.0,55,0.00,,SKC,0.00,VWS V14.01,2013-02-09 05:45:00,
2013-02-09 01:00:00,9.3,-3.6,30.28,NNE,22,0.0,0.0,55,0.00,,SKC,0.00,VWS V14.01,2013-02-09 06:00:00,
2013-02-09 01:15:00,8.6,-4.2,30.29,NNE,22,0.0,0.0,55,0.00,,SKC,0.00,VWS V14.01,2013-02-09 06:15:00,
2013-02-09 01:30:00,7.7,-5.1,30.29,NNE,22,0.0,0.0,55,0.00,,SKC,0.00,VWS V14.01,2013-02-09 06:30:00,
2013-02-09 01:45:00,6.9,-6.2,30.29,NNE,22,0.0,0.0,54,0.00,,SKC,0.00,VWS V14.01,2013-02-09 06:45:00,
2013-02-09 02:00:00,6.4,-7.1,30.30,NNE,22,0.0,0.0,53,0.00,,SKC,0.00,VWS V14.01,2013-02-09 07:00:00,
2013-02-09 02:15:00,5.3,-8.1,30.30,NNE,22,0.0,0.0,53,0.00,,SKC,0.00,VWS V14.01,2013-02-09 07:15:00,
2013-02-09 02:30:00,5.1,-8.7,30.30,NNE,22,0.0,0.0,52,0.00,,SKC,0.00,VWS V14.01,2013-02-09 07:30:00,
2013-02-09 02:45:00,5.0,-8.8,30.30,NNE,22,0.0,0.0,52,0.00,,SKC,0.00,VWS V14.01,2013-02-09 07:45:00,
2013-02-09 03:00:00,4.8,-8.6,30.30,NNE,22,0.0,0.0,53,0.00,,SKC,0.00,VWS V14.01,2013-02-09 08:00:00,
2013-02-09 03:15:00,5.3,-8.1,30.30,NNE,22,0.0,0.0,53,0.00,,SKC,0.00,VWS V14.01,2013-02-09 08:15:00,
2013-02-09 03:30:00,5.7,-7.3,30.30,NNE,22,0.0,0.0,54,0.00,,SKC,0.00,VWS V14.01,2013-02-09 08:30:00,
2013-02-09 03:45:00,5.5,-7.5,30.31,NNE,22,0.0,0.0,54,0.00,,SKC,0.00,VWS V14.01,2013-02-09 08:45:00,
2013-02-09 04:00:00,5.1,-7.9,30.31,NNE,22,0.0,0.0,54,0.00,,SKC,0.00,VWS V14.01,2013-02-09 09:00:00,
2013-02-09 04:15:00,5.1,-7.9,30.31,NNE,22,0.0,0.0,54,0.00,,SKC,0.00,VWS V14.01,2013-02-09 09:15:00,
2013-02-09 04:30:00,4.1,-9.2,30.31,NNE,22,0.0,60.8,53,0.00,,SKC,0.00,VWS V14.01,2013-02-09 09:30:00,
2013-02-09 04:45:00,3.7,-10.0,30.32,NNE,22,0.0,0.0,52,0.00,,SKC,0.00,VWS V14.01,2013-02-09 09:45:00,
2013-02-09 05:00:00,3.2,-10.4,30.33,NNE,22,0.0,0.0,52,0.00,,SKC,0.00,VWS V14.01,2013-02-09 10:00:00,
2013-02-09 05:15:00,3.0,-10.6,30.33,NNE,22,0.0,0.0,52,0.00,,SKC,0.00,VWS V14.01,2013-02-09 10:15:00,
2013-02-09 05:30:00,2.8,-10.8,30.33,NNE,22,0.0,0.0,52,0.00,,SKC,0.00,VWS V14.01,2013-02-09 10:30:00,
2013-02-09 05:45:00,2.8,-10.8,30.32,NNE,22,0.0,0.0,52,0.00,,SKC,0.00,VWS V14.01,2013-02-09 10:45:00,
2013-02-09 06:00:00,2.3,-11.3,30.32,NNE,22,0.0,0.0,52,0.00,,SKC,0.00,VWS V14.01,2013-02-09 11:00:00,
2013-02-09 06:15:00,2.6,-11.0,30.32,NNE,22,0.0,0.0,52,0.00,,SKC,0.00,VWS V14.01,2013-02-09 11:15:00,
2013-02-09 06:30:00,2.6,-11.0,30.33,NNE,22,0.0,0.0,52,0.00,,SKC,0.00,VWS V14.01,2013-02-09 11:30:00,
2013-02-09 06:45:00,2.6,-11.0,30.33,NNE,22,0.0,0.0,52,0.00,,SKC,0.00,VWS V14.01,2013-02-09 11:45:00,
2013-02-09 07:00:00,2.3,-11.3,30.34,NNE,22,0.0,0.0,52,0.00,,SKC,0.00,VWS V14.01,2013-02-09 12:00:00,
2013-02-09 07:15:00,1.7,-12.2,30.35,NNE,22,0.0,0.0,51,0.00,,SKC,0.00,VWS V14.01,2013-02-09 12:15:00,
2013-02-09 07:30:00,1.5,-12.4,30.35,NNE,22,0.0,0.0,51,0.00,,SKC,0.00,VWS V14.01,2013-02-09 12:30:00,
2013-02-09 07:45:00,1.7,-12.2,30.35,NNE,22,0.0,0.0,51,0.00,,SKC,0.00,VWS V14.01,2013-02-09 12:45:00,
2013-02-09 08:00:00,1.7,-11.9,30.35,NNE,22,0.0,0.0,52,0.00,,SKC,0.00,VWS V14.01,2013-02-09 13:00:00,
2013-02-09 08:15:00,2.1,-11.5,30.35,NNE,22,0.0,0.0,52,0.00,,SKC,0.00,VWS V14.01,2013-02-09 13:15:00,
2013-02-09 08:30:00,2.8,-10.8,30.36,NNE,22,0.0,0.0,52,0.00,,SKC,0.00,VWS V14.01,2013-02-09 13:30:00,
2013-02-09 08:45:00,4.6,-8.8,30.36,NNE,22,0.0,0.0,53,0.00,,SKC,0.00,VWS V14.01,2013-02-09 13:45:00,
2013-02-09 09:00:00,7.1,-5.7,30.36,NNE,22,0.0,0.0,55,0.00,,SKC,0.00,VWS V14.01,2013-02-09 14:00:00,
2013-02-09 09:15:00,9.8,-2.7,30.36,NNE,22,0.0,0.0,56,0.00,,SKC,0.00,VWS V14.01,2013-02-09 14:15:00,
2013-02-09 09:30:00,13.1,0.7,30.35,NNE,22,0.0,0.0,57,0.00,,SKC,0.00,VWS V14.01,2013-02-09 14:30:00,
2013-02-09 09:45:00,16.8,5.3,30.35,NNE,22,0.0,0.0,60,0.00,,SKC,0.00,VWS V14.01,2013-02-09 14:45:00,
2013-02-09 10:00:00,20.3,9.4,30.35,NNE,22,0.0,0.0,62,0.00,,SKC,0.00,VWS V14.01,2013-02-09 15:00:00,
2013-02-09 10:15:00,24.2,12.7,30.35,NNE,22,0.0,0.0,61,0.00,,SKC,0.00,VWS V14.01,2013-02-09 15:15:00,
2013-02-09 10:30:00,27.5,15.1,30.35,NE,45,0.0,0.0,59,0.00,,SKC,0.00,VWS V14.01,2013-02-09 15:30:00,
2013-02-09 10:45:00,30.5,16.7,30.35,South,180,0.0,1.7,56,0.00,,SKC,0.00,VWS V14.01,2013-02-09 15:45:00,
2013-02-09 11:00:00,32.1,16.0,30.35,South,180,0.0,2.0,51,0.00,,SKC,0.00,VWS V14.01,2013-02-09 16:00:00,
2013-02-09 11:15:00,32.3,14.8,30.35,South,180,3.5,3.5,48,0.00,,SKC,0.00,VWS V14.01,2013-02-09 16:15:00,
2013-02-09 11:30:00,32.9,13.9,30.35,SSW,202,0.0,3.5,45,0.00,,SKC,0.00,VWS V14.01,2013-02-09 16:30:00,
2013-02-09 11:45:00,33.4,13.9,30.34,SSE,158,0.0,2.2,44,0.02,,SKC,0.02,VWS V14.01,2013-02-09 16:45:00,
2013-02-09 12:00:00,33.9,13.8,30.35,SSE,158,0.2,3.3,43,0.04,,SKC,0.04,VWS V14.01,2013-02-09 17:00:00,
2013-02-09 12:15:00,34.3,12.5,30.35,SSW,202,4.6,5.3,40,0.04,,SKC,0.04,VWS V14.01,2013-02-09 17:15:00,
2013-02-09 12:30:00,34.1,10.6,30.34,SSE,158,2.2,4.6,37,0.06,,SKC,0.06,VWS V14.01,2013-02-09 17:30:00,
2013-02-09 12:45:00,34.7,9.9,30.33,South,180,2.9,4.4,35,0.06,,SKC,0.06,VWS V14.01,2013-02-09 17:45:00,
2013-02-09 13:00:00,35.2,9.7,30.32,SSW,202,0.0,4.0,34,0.06,,SKC,0.08,VWS V14.01,2013-02-09 18:00:00,
2013-02-09 13:15:00,35.7,6.6,30.31,SSW,202,3.5,3.5,29,0.04,,SKC,0.08,VWS V14.01,2013-02-09 18:15:00,
2013-02-09 13:30:00,36.1,6.2,30.31,SE,135,0.0,5.1,28,0.04,,SKC,0.08,VWS V14.01,2013-02-09 18:30:00,
2013-02-09 13:45:00,36.5,2.2,30.31,WSW,248,1.5,4.4,23,0.02,,SKC,0.08,VWS V14.01,2013-02-09 18:45:00,
2013-02-09 14:00:00,35.9,-2.3,30.30,SW,225,4.6,4.6,19,0.02,,SKC,0.08,VWS V14.01,2013-02-09 19:00:00,
2013-02-09 14:15:00,36.1,-2.2,30.30,SW,225,4.4,4.6,19,0.00,,SKC,0.08,VWS V14.01,2013-02-09 19:15:00,
2013-02-09 14:30:00,35.7,-2.5,30.29,South,180,6.0,7.3,19,0.00,,SKC,0.08,VWS V14.01,2013-02-09 19:30:00,
2013-02-09 14:45:00,35.6,3.3,30.28,SSW,202,4.2,6.0,25,0.00,,SKC,0.08,VWS V14.01,2013-02-09 19:45:00,
2013-02-09 15:00:00,35.2,6.1,30.28,South,180,2.9,4.6,29,0.00,,SKC,0.08,VWS V14.01,2013-02-09 20:00:00,
2013-02-09 15:15:00,34.1,5.9,30.28,SW,225,0.0,6.2,30,0.00,,SKC,0.08,VWS V14.01,2013-02-09 20:15:00,
2013-02-09 15:30:00,33.2,7.9,30.27,SSW,202,1.5,5.1,34,0.00,,SKC,0.08,VWS V14.01,2013-02-09 20:30:00,
2013-02-09 15:45:00,32.3,7.7,30.27,SSW,202,0.8,4.2,35,0.00,,SKC,0.08,VWS V14.01,2013-02-09 20:45:00,
2013-02-09 16:15:00,30.9,7.1,30.27,SSW,202,0.0,5.3,36,0.00,,SKC,0.08,VWS V14.01,2013-02-09 21:15:00,
2013-02-09 16:30:00,30.0,6.9,30.27,South,180,4.0,4.0,37,0.00,,SKC,0.08,VWS V14.01,2013-02-09 21:30:00,
2013-02-09 16:45:00,29.1,7.2,30.26,SSW,202,4.2,5.5,39,0.00,,SKC,0.08,VWS V14.01,2013-02-09 21:45:00,
2013-02-09 17:00:00,28.2,7.0,30.26,South,180,2.0,4.2,40,0.00,,SKC,0.08,VWS V14.01,2013-02-09 22:00:00,
2013-02-09 17:15:00,27.6,7.0,30.26,WSW,248,0.0,2.2,41,0.00,,SKC,0.08,VWS V14.01,2013-02-09 22:15:00,
2013-02-09 17:30:00,26.9,6.9,30.27,SSW,202,1.7,5.3,42,0.00,,SKC,0.08,VWS V14.01,2013-02-09 22:30:00,
2013-02-09 17:45:00,25.8,5.9,30.26,SSW,202,0.6,3.1,42,0.00,,SKC,0.08,VWS V14.01,2013-02-09 22:45:00,
2013-02-09 18:00:00,24.9,5.1,30.26,SSW,202,0.2,3.1,42,0.00,,SKC,0.08,VWS V14.01,2013-02-09 23:00:00,
2013-02-09 18:15:00,23.9,4.7,30.27,SSW,202,0.0,0.2,43,0.00,,SKC,0.08,VWS V14.01,2013-02-09 23:15:00,
2013-02-09 18:30:00,23.1,4.9,30.27,South,180,0.0,0.0,45,0.00,,SKC,0.08,VWS V14.01,2013-02-09 23:30:00,
2013-02-09 18:45:00,22.4,4.8,30.27,South,180,0.0,0.0,46,0.00,,SKC,0.08,VWS V14.01,2013-02-09 23:45:00,
2013-02-09 19:00:00,21.9,5.2,30.26,South,180,0.0,0.0,48,0.00,,SKC,0.08,VWS V14.01,2013-02-10 00:00:00,
2013-02-09 19:15:00,21.5,6.2,30.25,South,180,0.0,2.2,51,0.00,,SKC,0.08,VWS V14.01,2013-02-10 00:15:00,
2013-02-09 19:30:00,21.5,6.6,30.25,South,180,1.7,2.0,52,0.00,,SKC,0.08,VWS V14.01,2013-02-10 00:30:00,
2013-02-09 19:45:00,21.3,6.8,30.25,SSW,202,0.0,1.7,53,0.00,,SKC,0.08,VWS V14.01,2013-02-10 00:45:00,
2013-02-09 20:00:00,20.8,7.2,30.25,SW,225,1.7,3.8,55,0.00,,SKC,0.08,VWS V14.01,2013-02-10 01:00:00,
2013-02-09 20:15:00,20.6,7.4,30.25,SSW,202,1.1,1.7,56,0.00,,SKC,0.08,VWS V14.01,2013-02-10 01:15:00,
2013-02-09 20:30:00,20.4,7.6,30.25,SSW,202,0.0,2.6,57,0.00,,SKC,0.08,VWS V14.01,2013-02-10 01:30:00,
2013-02-09 20:45:00,20.3,7.9,30.24,SSW,202,2.6,2.6,58,0.00,,SKC,0.08,VWS V14.01,2013-02-10 01:45:00,
2013-02-09 21:00:00,20.1,8.5,30.24,SSE,158,0.0,4.6,60,0.00,,SKC,0.08,VWS V14.01,2013-02-10 02:00:00,
2013-02-09 21:15:00,19.9,8.6,30.24,South,180,2.9,3.3,61,0.00,,SKC,0.08,VWS V14.01,2013-02-10 02:15:00,
2013-02-09 21:30:00,19.9,8.6,30.24,South,180,0.0,4.6,61,0.00,,SKC,0.08,VWS V14.01,2013-02-10 02:30:00,
2013-02-09 21:45:00,19.5,8.6,30.23,South,180,0.0,1.5,62,0.00,,SKC,0.08,VWS V14.01,2013-02-10 02:45:00,
2013-02-09 22:00:00,19.5,9.0,30.23,SSW,202,3.1,3.1,63,0.00,,SKC,0.08,VWS V14.01,2013-02-10 03:00:00,
2013-02-09 22:15:00,19.4,9.2,30.23,South,180,2.0,4.2,64,0.00,,SKC,0.08,VWS V14.01,2013-02-10 03:15:00,
2013-02-09 22:30:00,19.2,9.0,30.22,South,180,0.6,5.1,64,0.00,,SKC,0.08,VWS V14.01,2013-02-10 03:30:00,
2013-02-09 22:45:00,19.2,9.4,30.22,SE,135,2.4,5.8,65,0.00,,SKC,0.08,VWS V14.01,2013-02-10 03:45:00,
2013-02-09 23:00:00,19.0,9.2,30.22,South,180,0.0,2.9,65,0.00,,SKC,0.08,VWS V14.01,2013-02-10 04:00:00,
2013-02-09 23:15:00,18.8,9.3,30.22,South,180,0.8,3.8,66,0.00,,SKC,0.08,VWS V14.01,2013-02-10 04:15:00,
2013-02-09 23:30:00,18.6,9.1,30.22,SSW,202,0.0,3.1,66,0.00,,SKC,0.08,VWS V14.01,2013-02-10 04:30:00,
2013-02-09 23:43:00,18.5,9.4,30.22,South,180,1.7,3.5,67,0.00,,SKC,0.08,VWS V14.01,2013-02-10 04:43:00,
2013-02-09 23:48:00,18.5,9.4,30.22,South,180,0.0,0.0,67,0.00,,SKC,0.08,VWS V14.01,2013-02-10 04:48:00,
2013-02-09 23:53:00,18.5,9.4,30.22,South,180,0.0,0.0,67,0.00,,SKC,0.08,VWS V14.01,2013-02-10 04:53:00,
2013-02-09 23:58:00,18.5,9.4,30.21,South,180,1.1,2.6,67,0.00,,SKC,0.08,VWS V14.01,2013-02-10 04:58:00,